createdAt,value
2018-06-12T00:00:38.147Z,17.90
2018-06-12T00:02:41.687Z,17.90
2018-06-12T00:04:45.331Z,17.90
2018-06-12T00:06:48.999Z,17.90
2018-06-12T00:08:52.518Z,18.00
2018-06-12T00:10:56.003Z,18.00
2018-06-12T00:12:59.509Z,18.00
2018-06-12T00:15:03.099Z,18.00
2018-06-12T00:17:06.611Z,18.10
2018-06-12T00:19:10.107Z,18.10
2018-06-12T00:21:13.585Z,18.10
2018-06-12T00:23:17.243Z,17.90
2018-06-12T00:25:20.742Z,17.80
2018-06-12T00:27:24.187Z,17.70
2018-06-12T00:29:27.719Z,17.70
2018-06-12T00:31:31.217Z,17.60
2018-06-12T00:33:34.691Z,17.60
2018-06-12T00:35:38.178Z,17.70
2018-06-12T00:37:41.674Z,17.70
2018-06-12T00:39:45.263Z,17.70
2018-06-12T00:41:48.743Z,17.80
2018-06-12T00:43:52.269Z,17.80
2018-06-12T00:48:08.075Z,17.80
2018-06-12T00:50:11.632Z,17.90
2018-06-12T00:52:15.197Z,17.90
2018-06-12T00:54:18.667Z,17.90
2018-06-12T00:56:33.400Z,18.00
2018-06-12T00:58:36.907Z,18.00
2018-06-12T01:00:40.424Z,18.00
2018-06-12T01:02:43.939Z,18.00
2018-06-12T01:04:47.531Z,18.00
2018-06-12T01:06:51.012Z,18.00
2018-06-12T01:08:54.587Z,18.00
2018-06-12T01:10:58.076Z,18.00
2018-06-12T01:13:01.688Z,17.90
2018-06-12T01:15:05.211Z,18.00
2018-06-12T01:17:08.779Z,18.00
2018-06-12T01:19:12.271Z,18.00
2018-06-12T01:21:15.742Z,18.00
2018-06-12T01:23:19.307Z,18.00
2018-06-12T01:25:22.939Z,17.90
2018-06-12T01:27:26.469Z,17.90
2018-06-12T01:29:30.024Z,17.80
2018-06-12T01:31:33.503Z,17.80
2018-06-12T01:33:37.079Z,17.70
2018-06-12T01:35:40.568Z,17.60
2018-06-12T01:37:44.042Z,17.60
2018-06-12T01:39:47.645Z,17.60
2018-06-12T01:41:51.160Z,17.70
2018-06-12T01:43:54.660Z,17.70
2018-06-12T01:45:58.132Z,17.70
2018-06-12T01:48:01.613Z,17.70
2018-06-12T01:50:05.312Z,17.80
2018-06-12T01:54:12.163Z,17.70
2018-06-12T01:56:15.648Z,17.70
2018-06-12T01:58:19.199Z,17.50
2018-06-12T02:00:22.752Z,17.50
2018-06-12T02:02:26.238Z,17.60
2018-06-12T02:04:29.735Z,17.60
2018-06-12T02:06:33.262Z,17.70
2018-06-12T02:08:36.844Z,17.80
2018-06-12T02:10:40.461Z,17.80
2018-06-12T02:14:47.159Z,17.90
2018-06-12T02:16:50.655Z,17.90
2018-06-12T02:18:54.111Z,17.90
2018-06-12T02:20:57.721Z,17.90
2018-06-12T02:23:01.231Z,17.90
2018-06-12T02:25:05.045Z,17.90
2018-06-12T02:29:17.398Z,17.90
2018-06-12T02:31:20.980Z,17.80
2018-06-12T02:33:24.454Z,17.80
2018-06-12T02:35:28.015Z,17.80
2018-06-12T02:37:31.483Z,17.70
2018-06-12T02:39:35.297Z,17.70
2018-06-12T02:41:38.792Z,17.70
2018-06-12T02:43:42.323Z,17.70
2018-06-12T02:45:45.846Z,17.70
2018-06-12T02:47:49.327Z,17.70
2018-06-12T02:49:52.827Z,17.70
2018-06-12T02:51:56.482Z,17.80
2018-06-12T02:53:59.974Z,17.70
2018-06-12T02:56:03.479Z,17.80
2018-06-12T02:58:06.959Z,17.90
2018-06-12T03:00:10.451Z,17.80
2018-06-12T03:02:14.026Z,17.80
2018-06-12T03:04:17.555Z,17.90
2018-06-12T03:06:21.162Z,17.90
2018-06-12T03:08:24.691Z,17.90
2018-06-12T03:14:34.607Z,17.90
2018-06-12T03:16:38.125Z,17.90
2018-06-12T03:18:41.584Z,18.00
2018-06-12T03:20:46.574Z,18.00
2018-06-12T03:22:50.064Z,18.00
2018-06-12T03:24:53.568Z,18.00
2018-06-12T03:26:57.178Z,18.00
2018-06-12T03:29:00.637Z,18.00
2018-06-12T03:31:04.251Z,18.00
2018-06-12T03:33:07.749Z,18.10
2018-06-12T03:35:11.216Z,18.00
2018-06-12T03:37:14.759Z,18.00
2018-06-12T03:39:18.304Z,17.90
2018-06-12T03:41:21.946Z,18.00
2018-06-12T03:43:25.467Z,18.00
2018-06-12T03:45:28.958Z,18.00
2018-06-12T03:47:32.539Z,18.00
2018-06-12T03:49:36.075Z,18.00
2018-06-12T03:51:39.615Z,18.10
2018-06-12T03:53:43.090Z,18.10
2018-06-12T03:55:46.739Z,18.20
2018-06-12T03:57:50.289Z,18.10
2018-06-12T03:59:53.786Z,18.10
2018-06-12T04:01:57.302Z,18.10
2018-06-12T04:06:04.045Z,18.00
2018-06-12T04:08:07.544Z,18.00
2018-06-12T04:10:11.031Z,18.00
2018-06-12T04:12:14.635Z,18.10
2018-06-12T04:14:18.102Z,18.10
2018-06-12T04:16:21.589Z,18.10
2018-06-12T04:18:25.063Z,18.10
2018-06-12T04:20:28.584Z,18.10
2018-06-12T04:22:32.020Z,18.10
2018-06-12T04:24:35.535Z,18.10
2018-06-12T04:26:39.084Z,18.00
2018-06-12T04:28:42.660Z,18.10
2018-06-12T04:30:46.128Z,18.10
2018-06-12T04:32:49.708Z,18.20
2018-06-12T04:34:53.254Z,18.20
2018-06-12T04:36:56.813Z,18.20
2018-06-12T04:39:00.323Z,18.20
2018-06-12T04:41:03.923Z,18.20
2018-06-12T04:43:07.419Z,18.20
2018-06-12T04:45:10.931Z,18.20
2018-06-12T04:47:14.470Z,18.20
2018-06-12T04:49:17.970Z,18.10
2018-06-12T04:51:21.490Z,18.10
2018-06-12T04:53:25.096Z,18.20
2018-06-12T04:55:28.576Z,18.20
2018-06-12T04:57:32.451Z,18.20
2018-06-12T04:59:35.947Z,18.40
2018-06-12T05:01:39.683Z,18.40
2018-06-12T05:05:46.624Z,18.30
2018-06-12T05:07:50.123Z,18.50
2018-06-12T05:09:53.626Z,18.60
2018-06-12T05:11:58.136Z,18.70
2018-06-12T05:14:01.725Z,18.80
2018-06-12T05:16:05.236Z,18.70
2018-06-12T05:18:08.727Z,18.70
2018-06-12T05:20:12.242Z,18.80
2018-06-12T05:22:15.770Z,18.70
2018-06-12T05:24:19.282Z,18.70
2018-06-12T05:26:22.854Z,18.80
2018-06-12T05:28:26.343Z,18.70
2018-06-12T05:30:29.843Z,18.70
2018-06-12T05:32:33.355Z,18.60
2018-06-12T05:34:36.847Z,18.50
2018-06-12T05:36:40.452Z,18.40
2018-06-12T05:38:43.928Z,18.40
2018-06-12T05:40:47.415Z,18.30
2018-06-12T05:42:50.937Z,18.30
2018-06-12T05:44:54.479Z,18.30
2018-06-12T05:46:58.004Z,18.40
2018-06-12T05:49:01.631Z,18.40
2018-06-12T05:51:05.116Z,18.40
2018-06-12T05:53:08.667Z,18.50
2018-06-12T05:55:12.120Z,18.60
2018-06-12T05:57:15.631Z,18.70
2018-06-12T05:59:19.286Z,18.70
2018-06-12T06:01:22.935Z,18.80
2018-06-12T06:03:26.396Z,18.80
2018-06-12T06:05:29.898Z,18.90
2018-06-12T06:07:33.460Z,19.00
2018-06-12T06:09:36.950Z,19.10
2018-06-12T06:11:40.428Z,19.20
2018-06-12T06:13:43.918Z,19.10
2018-06-12T06:15:47.457Z,19.10
2018-06-12T06:17:51.008Z,19.10
2018-06-12T06:19:54.480Z,19.10
2018-06-12T06:21:58.135Z,19.00
2018-06-12T06:24:01.733Z,19.10
2018-06-12T06:26:05.283Z,19.20
2018-06-12T06:28:08.939Z,19.30
2018-06-12T06:30:12.443Z,19.40
2018-06-12T06:32:15.956Z,19.50
2018-06-12T06:34:19.451Z,19.50
2018-06-12T06:36:23.014Z,19.60
2018-06-12T06:38:26.467Z,19.60
2018-06-12T06:40:30.011Z,19.60
2018-06-12T06:44:36.851Z,19.50
2018-06-12T06:46:40.347Z,19.50
2018-06-12T06:48:43.901Z,19.50
2018-06-12T06:50:47.340Z,19.50
2018-06-12T06:52:51.007Z,19.50
2018-06-12T06:54:54.510Z,19.60
2018-06-12T06:56:57.979Z,19.50
2018-06-12T06:59:01.575Z,19.50
2018-06-12T07:03:08.284Z,19.60
2018-06-12T07:05:11.847Z,19.60
2018-06-12T07:07:15.363Z,19.60
2018-06-12T07:11:22.123Z,19.70
2018-06-12T07:13:25.622Z,19.80
2018-06-12T07:15:29.168Z,19.80
2018-06-12T07:17:32.705Z,19.70
2018-06-12T07:19:36.339Z,19.80
2018-06-12T07:21:39.822Z,19.70
2018-06-12T07:23:43.418Z,19.70
2018-06-12T07:25:46.944Z,19.70
2018-06-12T07:27:50.457Z,19.80
2018-06-12T07:29:53.957Z,19.80
2018-06-12T07:31:57.583Z,19.90
2018-06-12T07:34:01.076Z,20.00
2018-06-12T07:36:04.619Z,20.00
2018-06-12T07:38:08.101Z,20.10
2018-06-12T07:40:11.723Z,20.20
2018-06-12T07:42:15.243Z,20.10
2018-06-12T07:44:18.771Z,20.10
2018-06-12T07:46:22.286Z,20.20
2018-06-12T07:48:25.776Z,20.20
2018-06-12T07:50:29.333Z,20.20
2018-06-12T07:52:32.919Z,20.20
2018-06-12T07:54:36.455Z,20.10
2018-06-12T07:56:40.059Z,20.10
2018-06-12T07:58:43.570Z,20.10
2018-06-12T08:00:47.039Z,20.10
2018-06-12T08:02:50.524Z,20.10
2018-06-12T08:04:54.171Z,20.20
2018-06-12T08:06:57.853Z,20.10
2018-06-12T08:09:01.315Z,20.10
2018-06-12T08:11:04.836Z,20.20
2018-06-12T08:13:08.447Z,20.30
2018-06-12T08:15:11.877Z,20.50
2018-06-12T08:17:15.348Z,20.60
2018-06-12T08:19:18.920Z,20.60
2018-06-12T08:21:22.388Z,20.60
2018-06-12T08:23:25.928Z,20.70
2018-06-12T08:25:29.424Z,20.80
2018-06-12T08:27:32.904Z,20.90
2018-06-12T08:29:36.462Z,21.00
2018-06-12T08:31:39.906Z,21.00
2018-06-12T08:33:43.382Z,21.00
2018-06-12T08:35:46.921Z,21.10
2018-06-12T08:37:50.379Z,21.10
2018-06-12T08:41:57.176Z,21.00
2018-06-12T08:44:00.680Z,21.00
2018-06-12T08:46:04.260Z,21.00
2018-06-12T08:48:07.743Z,21.00
2018-06-12T08:52:14.528Z,21.10
2018-06-12T08:54:18.127Z,21.20
2018-06-12T08:56:21.613Z,21.30
2018-06-12T08:58:25.090Z,21.40
2018-06-12T09:00:28.700Z,21.50
2018-06-12T09:02:32.249Z,21.40
2018-06-12T09:04:35.771Z,21.40
2018-06-12T09:06:39.336Z,21.40
2018-06-12T09:08:42.828Z,21.30
2018-06-12T09:10:46.354Z,21.30
2018-06-12T09:12:49.867Z,21.20
2018-06-12T09:14:53.559Z,21.30
2018-06-12T09:16:57.035Z,21.50
2018-06-12T09:19:00.696Z,21.50
2018-06-12T09:21:04.208Z,21.50
2018-06-12T09:23:07.678Z,21.50
2018-06-12T09:25:11.249Z,21.60
2018-06-12T09:27:14.754Z,21.70
2018-06-12T09:29:18.209Z,21.70
2018-06-12T09:31:21.800Z,21.80
2018-06-12T09:33:25.325Z,21.90
2018-06-12T09:35:28.834Z,21.90
2018-06-12T09:37:32.347Z,21.90
2018-06-12T09:39:35.856Z,21.80
2018-06-12T09:41:39.352Z,21.70
2018-06-12T09:43:42.932Z,21.30
2018-06-12T09:45:46.495Z,21.10
2018-06-12T09:47:50.035Z,20.80
2018-06-12T09:51:56.808Z,20.60
2018-06-12T09:54:00.343Z,20.50
2018-06-12T09:56:03.868Z,20.40
2018-06-12T09:58:07.347Z,20.40
2018-06-12T10:00:11.020Z,20.40
2018-06-12T10:02:14.617Z,20.50
2018-06-12T10:04:18.230Z,20.50
2018-06-12T10:06:21.861Z,20.50
2018-06-12T10:08:25.332Z,20.50
2018-06-12T10:10:28.835Z,20.60
2018-06-12T10:12:32.383Z,20.70
2018-06-12T10:14:35.860Z,20.70
2018-06-12T10:16:39.611Z,20.80
2018-06-12T10:18:43.214Z,21.00
2018-06-12T10:20:46.741Z,20.90
2018-06-12T10:22:50.298Z,20.90
2018-06-12T10:24:53.827Z,21.00
2018-06-12T10:26:57.355Z,20.90
2018-06-12T10:29:00.875Z,20.90
2018-06-12T10:31:04.363Z,20.80
2018-06-12T10:33:07.853Z,20.90
2018-06-12T10:37:14.736Z,20.80
2018-06-12T10:39:18.195Z,20.90
2018-06-12T10:41:21.731Z,20.90
2018-06-12T10:43:25.224Z,21.00
2018-06-12T10:45:28.734Z,21.00
2018-06-12T10:47:32.221Z,21.00
2018-06-12T10:49:35.890Z,21.10
2018-06-12T10:51:39.417Z,21.00
2018-06-12T10:53:42.891Z,21.00
2018-06-12T10:55:46.444Z,21.00
2018-06-12T10:57:49.965Z,21.10
2018-06-12T10:59:53.471Z,21.20
2018-06-12T11:01:57.020Z,21.00
2018-06-12T11:04:00.828Z,21.10
2018-06-12T11:06:04.389Z,21.10
2018-06-12T11:08:07.922Z,21.00
2018-06-12T11:10:11.508Z,21.10
2018-06-12T11:12:15.109Z,21.20
2018-06-12T11:14:18.596Z,21.30
2018-06-12T11:16:22.215Z,21.50
2018-06-12T11:18:25.685Z,21.60
2018-06-12T11:20:29.176Z,21.60
2018-06-12T11:22:32.703Z,21.50
2018-06-12T11:24:36.213Z,21.70
2018-06-12T11:26:39.728Z,21.70
2018-06-12T11:28:43.250Z,21.70
2018-06-12T11:32:49.981Z,21.80
2018-06-12T11:34:53.464Z,21.80
2018-06-12T11:36:56.980Z,21.90
2018-06-12T11:39:00.465Z,22.00
2018-06-12T11:41:03.971Z,22.00
2018-06-12T11:43:07.521Z,22.10
2018-06-12T11:45:11.072Z,22.30
2018-06-12T11:47:14.583Z,22.40
2018-06-12T11:49:18.203Z,22.50
2018-06-12T11:51:21.716Z,22.50
2018-06-12T11:53:25.291Z,22.40
2018-06-12T11:55:28.795Z,22.40
2018-06-12T11:57:32.386Z,22.60
2018-06-12T11:59:35.885Z,22.80
2018-06-12T12:01:39.432Z,22.60
2018-06-12T12:03:42.932Z,22.50
2018-06-12T12:05:46.463Z,22.60
2018-06-12T12:09:53.194Z,22.50
2018-06-12T12:11:56.703Z,22.50
2018-06-12T12:14:00.259Z,22.40
2018-06-12T12:16:03.850Z,22.50
2018-06-12T12:18:07.362Z,22.40
2018-06-12T12:20:10.858Z,22.50
2018-06-12T12:22:14.412Z,22.60
2018-06-12T12:24:17.913Z,22.70
2018-06-12T12:28:24.540Z,22.80
2018-06-12T12:30:28.023Z,22.80
2018-06-12T12:32:31.559Z,22.80
2018-06-12T12:34:35.036Z,23.00
2018-06-12T12:36:38.531Z,22.90
2018-06-12T12:38:42.042Z,22.70
2018-06-12T12:40:45.596Z,22.70
2018-06-12T12:42:49.132Z,22.70
2018-06-12T12:44:52.710Z,22.70
2018-06-12T12:46:56.223Z,22.60
2018-06-12T12:48:59.831Z,22.50
2018-06-12T12:51:03.351Z,22.60
2018-06-12T12:53:06.941Z,22.70
2018-06-12T12:55:10.384Z,22.80
2018-06-12T12:57:13.943Z,22.70
2018-06-12T12:59:17.472Z,22.60
2018-06-12T13:01:21.012Z,22.70
2018-06-12T13:03:24.584Z,22.70
2018-06-12T13:05:28.117Z,22.60
2018-06-12T13:07:31.646Z,22.70
2018-06-12T13:09:35.221Z,22.70
2018-06-12T13:11:38.739Z,22.70
2018-06-12T13:13:42.307Z,22.80
2018-06-12T13:15:45.792Z,22.70
2018-06-12T13:17:49.291Z,22.60
2018-06-12T13:19:52.783Z,22.50
2018-06-12T13:21:56.250Z,22.40
2018-06-12T13:23:59.750Z,22.30
2018-06-12T13:26:03.311Z,22.20
2018-06-12T13:28:07.004Z,22.10
2018-06-12T13:30:10.534Z,22.10
2018-06-12T13:32:14.098Z,22.00
2018-06-12T13:34:17.611Z,21.80
2018-06-12T13:36:21.171Z,21.70
2018-06-12T13:38:24.669Z,21.80
2018-06-12T13:40:28.203Z,21.90
2018-06-12T13:42:31.676Z,21.90
2018-06-12T13:44:35.235Z,21.90
2018-06-12T13:46:38.701Z,21.90
2018-06-12T13:48:42.201Z,21.80
2018-06-12T13:50:45.688Z,21.90
2018-06-12T13:52:49.161Z,21.90
2018-06-12T13:54:52.760Z,21.90
2018-06-12T13:56:56.232Z,21.80
2018-06-12T13:58:59.728Z,21.90
2018-06-12T14:01:03.252Z,22.00
2018-06-12T14:03:07.258Z,22.00
2018-06-12T14:05:10.748Z,22.00
2018-06-12T14:07:14.231Z,21.90
2018-06-12T14:09:17.800Z,21.90
2018-06-12T14:11:21.308Z,21.80
2018-06-12T14:13:24.874Z,21.80
2018-06-12T14:15:28.399Z,21.80
2018-06-12T14:17:31.971Z,21.80
2018-06-12T14:19:35.485Z,21.90
2018-06-12T14:23:47.473Z,21.90
2018-06-12T14:25:50.998Z,22.20
2018-06-12T14:29:57.694Z,22.30
2018-06-12T14:32:01.234Z,22.40
2018-06-12T14:34:04.772Z,22.50
2018-06-12T14:36:08.347Z,22.50
2018-06-12T14:38:11.832Z,22.40
2018-06-12T14:40:15.454Z,22.10
2018-06-12T14:42:18.959Z,22.00
2018-06-12T14:46:25.617Z,21.50
2018-06-12T14:48:29.105Z,21.40
2018-06-12T14:50:32.695Z,21.30
2018-06-12T14:52:36.252Z,21.30
2018-06-12T14:54:39.875Z,21.40
2018-06-12T14:56:43.366Z,21.40
2018-06-12T14:58:46.886Z,21.30
2018-06-12T15:00:50.355Z,21.10
2018-06-12T15:02:53.908Z,21.00
2018-06-12T15:07:00.746Z,20.80
2018-06-12T15:09:05.482Z,20.60
2018-06-12T15:11:09.084Z,20.30
2018-06-12T15:13:12.580Z,20.20
2018-06-12T15:15:16.224Z,20.00
2018-06-12T15:17:19.718Z,20.00
2018-06-12T15:19:23.231Z,19.80
2018-06-12T15:21:26.800Z,19.80
2018-06-12T15:23:30.463Z,19.70
2018-06-12T15:25:34.052Z,19.70
2018-06-12T15:27:37.582Z,19.70
2018-06-12T15:29:41.083Z,19.70
2018-06-12T15:31:44.604Z,19.70
2018-06-12T15:33:48.096Z,19.70
2018-06-12T15:35:51.661Z,19.60
2018-06-12T15:37:55.188Z,19.60
2018-06-12T15:39:58.717Z,19.50
2018-06-12T15:42:02.251Z,19.50
2018-06-12T15:44:05.787Z,19.50
2018-06-12T15:46:09.556Z,19.60
2018-06-12T15:48:13.123Z,19.60
2018-06-12T15:50:16.708Z,19.60
2018-06-12T15:52:20.243Z,19.70
2018-06-12T15:54:23.787Z,19.80
2018-06-12T15:56:27.260Z,19.90
2018-06-12T15:58:30.799Z,19.90
2018-06-12T16:00:34.272Z,19.90
2018-06-12T16:02:37.811Z,20.00
2018-06-12T16:04:41.342Z,20.10
2018-06-12T16:06:45.006Z,20.10
2018-06-12T16:08:48.500Z,20.10
2018-06-12T16:10:52.016Z,20.20
2018-06-12T16:12:55.514Z,20.20
2018-06-12T16:17:02.325Z,20.10
2018-06-12T16:19:06.016Z,20.10
2018-06-12T16:21:09.549Z,20.00
2018-06-12T16:23:13.095Z,20.00
2018-06-12T16:25:16.754Z,20.00
2018-06-12T16:27:20.343Z,20.10
2018-06-12T16:29:23.832Z,20.10
2018-06-12T16:31:27.345Z,20.10
2018-06-12T16:33:30.870Z,20.10
2018-06-12T16:37:37.717Z,19.90
2018-06-12T16:39:41.157Z,19.90
2018-06-12T16:41:44.799Z,19.90
2018-06-12T16:43:48.336Z,19.90
2018-06-12T16:45:51.909Z,19.90
2018-06-12T16:47:55.521Z,19.90
2018-06-12T16:49:59.011Z,20.00
2018-06-12T16:52:02.563Z,20.00
2018-06-12T16:54:06.097Z,20.00
2018-06-12T16:56:09.654Z,20.00
2018-06-12T16:58:13.170Z,20.00
2018-06-12T17:00:16.682Z,20.00
2018-06-12T17:02:20.179Z,20.00
2018-06-12T17:04:23.723Z,19.90
2018-06-12T17:06:27.516Z,19.90
2018-06-12T17:08:31.132Z,19.80
2018-06-12T17:10:34.774Z,19.80
2018-06-12T17:12:38.253Z,19.80
2018-06-12T17:14:41.738Z,19.70
2018-06-12T17:16:45.231Z,19.70
2018-06-12T17:18:48.720Z,19.70
2018-06-12T17:20:52.317Z,19.70
2018-06-12T17:22:55.899Z,19.80
2018-06-12T17:24:59.471Z,19.70
2018-06-12T17:27:03.029Z,19.70
2018-06-12T17:29:06.571Z,19.70
2018-06-12T17:31:10.124Z,19.60
2018-06-12T17:33:13.653Z,19.60
2018-06-12T17:35:17.221Z,19.60
2018-06-12T17:37:20.707Z,19.50
2018-06-12T17:39:24.231Z,19.50
2018-06-12T17:41:27.751Z,19.50
2018-06-12T17:43:31.300Z,19.60
2018-06-12T17:45:34.800Z,19.70
2018-06-12T17:47:38.353Z,19.70
2018-06-12T17:49:41.902Z,19.70
2018-06-12T17:51:45.511Z,19.70
2018-06-12T17:53:49.010Z,19.60
2018-06-12T17:55:52.492Z,19.60
2018-06-12T17:57:56.066Z,19.60
2018-06-12T17:59:59.652Z,19.60
2018-06-12T18:02:03.182Z,19.60
2018-06-12T18:04:06.741Z,19.60
2018-06-12T18:06:10.234Z,19.60
2018-06-12T18:08:13.840Z,19.70
2018-06-12T18:10:17.324Z,19.70
2018-06-12T18:12:20.921Z,19.70
2018-06-12T18:14:24.414Z,19.70
2018-06-12T18:16:27.944Z,19.70
2018-06-12T18:18:31.442Z,19.70
2018-06-12T18:20:34.985Z,19.60
2018-06-12T18:22:38.503Z,19.60
2018-06-12T18:24:42.093Z,19.60
2018-06-12T18:26:45.541Z,19.60
2018-06-12T18:28:49.095Z,19.50
2018-06-12T18:30:52.624Z,19.40
2018-06-12T18:32:56.147Z,19.40
2018-06-12T18:34:59.743Z,19.20
2018-06-12T18:37:03.300Z,19.30
2018-06-12T18:39:08.068Z,19.30
2018-06-12T18:45:18.122Z,19.30
2018-06-12T18:47:21.723Z,19.40
2018-06-12T18:49:25.205Z,19.30
2018-06-12T18:51:28.727Z,19.30
2018-06-12T18:53:32.212Z,19.30
2018-06-12T18:55:35.708Z,19.30
2018-06-12T18:57:39.372Z,19.30
2018-06-12T18:59:42.890Z,19.30
2018-06-12T19:01:46.422Z,19.30
2018-06-12T19:03:50.024Z,19.30
2018-06-12T19:05:53.544Z,19.30
2018-06-12T19:07:57.129Z,19.30
2018-06-12T19:10:00.619Z,19.30
2018-06-12T19:12:04.205Z,19.30
2018-06-12T19:14:07.753Z,19.30
2018-06-12T19:16:11.275Z,19.30
2018-06-12T19:18:14.819Z,19.30
2018-06-12T19:20:18.331Z,19.30
2018-06-12T19:22:21.815Z,19.30
2018-06-12T19:24:25.373Z,19.20
2018-06-12T19:26:28.924Z,19.20
2018-06-12T19:28:32.530Z,19.20
2018-06-12T19:30:36.140Z,19.20
2018-06-12T19:32:39.676Z,19.20
2018-06-12T19:34:43.219Z,19.10
2018-06-12T19:36:46.865Z,19.10
2018-06-12T19:38:50.436Z,19.10
2018-06-12T19:40:53.947Z,19.10
2018-06-12T19:42:57.502Z,19.10
2018-06-12T19:45:01.036Z,19.10
2018-06-12T19:47:04.511Z,19.20
2018-06-12T19:49:08.056Z,19.20
2018-06-12T19:51:11.558Z,19.20
2018-06-12T19:53:15.082Z,19.20
2018-06-12T19:55:18.595Z,19.10
2018-06-12T19:57:22.108Z,19.10
2018-06-12T19:59:25.729Z,19.00
2018-06-12T20:01:29.283Z,18.90
2018-06-12T20:03:32.894Z,18.90
2018-06-12T20:05:36.404Z,18.80
2018-06-12T20:07:39.992Z,18.80
2018-06-12T20:09:43.493Z,18.80
2018-06-12T20:11:46.984Z,18.70
2018-06-12T20:13:50.545Z,18.60
2018-06-12T20:15:55.482Z,18.50
2018-06-12T20:17:59.098Z,18.40
2018-06-12T20:20:02.659Z,18.40
2018-06-12T20:22:06.433Z,18.30
2018-06-12T20:24:09.972Z,18.20
2018-06-12T20:26:13.492Z,18.10
2018-06-12T20:28:17.050Z,18.10
2018-06-12T20:30:20.611Z,18.10
2018-06-12T20:34:27.346Z,17.80
2018-06-12T20:36:30.864Z,17.80
2018-06-12T20:38:34.346Z,17.70
2018-06-12T20:40:37.916Z,17.70
2018-06-12T20:42:41.419Z,17.70
2018-06-12T20:44:44.959Z,17.70
2018-06-12T20:46:48.473Z,17.60
2018-06-12T20:48:51.966Z,17.70
2018-06-12T20:52:58.611Z,17.60
2018-06-12T20:55:02.227Z,17.70
2018-06-12T20:57:05.843Z,17.70
2018-06-12T20:59:09.350Z,17.80
2018-06-12T21:01:12.864Z,17.80
2018-06-12T21:03:16.362Z,17.90
2018-06-12T21:05:20.027Z,17.90
2018-06-12T21:07:23.529Z,18.00
2018-06-12T21:09:27.099Z,18.00
2018-06-12T21:11:30.598Z,18.00
2018-06-12T21:13:34.088Z,18.00
2018-06-12T21:15:37.662Z,17.90
2018-06-12T21:17:41.204Z,17.90
2018-06-12T21:21:47.904Z,17.80
2018-06-12T21:23:51.407Z,17.70
2018-06-12T21:25:55.008Z,17.70
2018-06-12T21:27:58.563Z,17.70
2018-06-12T21:30:02.080Z,17.70
2018-06-12T21:32:05.772Z,17.70
2018-06-12T21:34:09.283Z,17.70
2018-06-12T21:36:12.791Z,17.70
2018-06-12T21:38:16.299Z,17.70
2018-06-12T21:40:19.799Z,17.70
2018-06-12T21:42:23.264Z,17.60
2018-06-12T21:44:26.795Z,17.50
2018-06-12T21:46:30.269Z,17.60
2018-06-12T21:48:33.771Z,17.60
2018-06-12T21:50:37.258Z,17.50
2018-06-12T21:52:40.748Z,17.40
2018-06-12T21:54:44.272Z,17.40
2018-06-12T21:56:47.765Z,17.40
2018-06-12T21:58:51.247Z,17.40
2018-06-12T22:00:54.893Z,17.30
2018-06-12T22:02:58.366Z,17.40
2018-06-12T22:05:01.931Z,17.20
2018-06-12T22:07:05.452Z,17.20
2018-06-12T22:09:08.941Z,17.10
2018-06-12T22:11:12.423Z,17.10
2018-06-12T22:13:15.888Z,17.00
2018-06-12T22:15:19.377Z,17.00
2018-06-12T22:17:22.879Z,17.00
2018-06-12T22:19:26.382Z,17.00
2018-06-12T22:21:29.978Z,17.10
2018-06-12T22:23:33.447Z,17.10
2018-06-12T22:25:36.971Z,17.10
2018-06-12T22:27:40.639Z,17.10
2018-06-12T22:31:47.364Z,17.10
2018-06-12T22:33:50.860Z,17.10
2018-06-12T22:35:54.372Z,17.10
2018-06-12T22:37:57.907Z,17.10
2018-06-12T22:40:01.399Z,17.10
2018-06-12T22:42:04.942Z,17.10
2018-06-12T22:44:08.468Z,17.10
2018-06-12T22:46:12.113Z,17.00
2018-06-12T22:50:18.842Z,17.10
2018-06-12T22:52:22.351Z,17.10
2018-06-12T22:54:25.831Z,17.00
2018-06-12T22:56:29.408Z,16.90
2018-06-12T22:58:32.990Z,16.90
2018-06-12T23:00:36.467Z,17.00
2018-06-12T23:02:40.148Z,16.90
2018-06-12T23:04:43.704Z,16.90
2018-06-12T23:06:47.219Z,16.90
2018-06-12T23:08:50.694Z,16.90
2018-06-12T23:10:54.182Z,17.00
2018-06-12T23:12:57.700Z,16.90
2018-06-12T23:15:01.283Z,16.90
2018-06-12T23:17:04.844Z,16.80
2018-06-12T23:19:08.325Z,16.70
2018-06-12T23:23:20.640Z,16.70
2018-06-12T23:27:27.343Z,16.50
2018-06-12T23:29:30.847Z,16.50
2018-06-12T23:31:34.348Z,16.40
2018-06-12T23:33:37.827Z,16.30
2018-06-12T23:35:41.383Z,16.30
2018-06-12T23:37:44.888Z,16.20
2018-06-12T23:39:48.376Z,16.20
2018-06-12T23:41:51.882Z,16.30
2018-06-12T23:43:55.358Z,16.20
2018-06-12T23:45:58.843Z,16.10
2018-06-12T23:48:02.345Z,16.20
2018-06-12T23:50:05.998Z,16.20
2018-06-12T23:52:09.499Z,16.20
2018-06-12T23:54:12.981Z,16.20
2018-06-12T23:56:16.547Z,16.20
2018-06-12T23:58:20.044Z,16.10
